createdAt,value
2018-10-12T00:00:13.144Z,21.57
2018-10-12T00:02:42.028Z,24.47
2018-10-12T00:05:10.525Z,25.40
2018-10-12T00:07:38.496Z,20.30
2018-10-12T00:10:06.547Z,26.90
2018-10-12T00:12:34.273Z,23.80
2018-10-12T00:15:02.342Z,25.87
2018-10-12T00:17:37.493Z,27.80
2018-10-12T00:20:06.421Z,25.83
2018-10-12T00:22:34.365Z,26.90
2018-10-12T00:25:02.121Z,23.87
2018-10-12T00:27:29.826Z,27.00
2018-10-12T00:29:57.670Z,26.90
2018-10-12T00:32:25.346Z,21.37
2018-10-12T00:34:53.050Z,24.47
2018-10-12T00:37:20.717Z,26.10
2018-10-12T00:39:54.530Z,25.90
2018-10-12T00:42:22.228Z,19.47
2018-10-12T00:44:50.021Z,21.23
2018-10-12T00:47:27.648Z,23.83
2018-10-12T00:49:55.513Z,15.07
2018-10-12T00:52:23.164Z,16.40
2018-10-12T00:54:50.845Z,22.00
2018-10-12T00:57:21.349Z,13.80
2018-10-12T00:59:49.484Z,29.53
2018-10-12T01:02:17.217Z,29.60
2018-10-12T01:04:45.519Z,28.90
2018-10-12T01:07:13.501Z,26.70
2018-10-12T01:09:41.277Z,28.70
2018-10-12T01:15:08.269Z,27.33
2018-10-12T01:17:39.298Z,26.57
2018-10-12T01:20:07.654Z,19.20
2018-10-12T01:22:35.594Z,27.53
2018-10-12T01:25:04.202Z,16.33
2018-10-12T01:27:32.131Z,29.63
2018-10-12T01:29:59.946Z,28.97
2018-10-12T01:32:33.536Z,21.47
2018-10-12T01:35:01.281Z,24.10
2018-10-12T01:37:29.049Z,25.10
2018-10-12T01:39:56.858Z,31.70
2018-10-12T01:42:24.660Z,25.07
2018-10-12T01:44:52.344Z,26.40
2018-10-12T01:47:20.013Z,27.10
2018-10-12T01:49:47.768Z,25.43
2018-10-12T01:52:15.448Z,27.60
2018-10-12T01:54:43.156Z,32.17
2018-10-12T01:57:11.669Z,26.60
2018-10-12T01:59:39.344Z,30.23
2018-10-12T02:02:07.289Z,28.53
2018-10-12T02:04:34.934Z,28.10
2018-10-12T02:07:03.057Z,30.97
2018-10-12T02:09:30.738Z,28.67
2018-10-12T02:11:58.565Z,21.70
2018-10-12T02:14:26.808Z,25.57
2018-10-12T02:16:54.605Z,29.13
2018-10-12T02:19:22.341Z,30.33
2018-10-12T02:21:50.047Z,28.77
2018-10-12T02:24:17.682Z,27.07
2018-10-12T02:26:45.365Z,26.43
2018-10-12T02:29:13.165Z,28.43
2018-10-12T02:31:41.268Z,30.90
2018-10-12T02:34:08.932Z,26.77
2018-10-12T02:36:36.937Z,26.37
2018-10-12T02:39:08.389Z,28.37
2018-10-12T02:41:36.071Z,29.50
2018-10-12T02:44:03.745Z,28.23
2018-10-12T02:46:31.509Z,26.87
2018-10-12T02:48:59.209Z,28.20
2018-10-12T02:51:27.470Z,31.43
2018-10-12T02:53:55.165Z,27.10
2018-10-12T02:56:23.618Z,30.73
2018-10-12T02:58:51.773Z,29.70
2018-10-12T03:01:20.461Z,33.60
2018-10-12T03:03:48.413Z,30.33
2018-10-12T03:06:16.232Z,31.20
2018-10-12T03:08:44.085Z,28.20
2018-10-12T03:11:11.829Z,30.80
2018-10-12T03:13:39.941Z,30.60
2018-10-12T03:16:07.673Z,28.87
2018-10-12T03:18:35.419Z,25.17
2018-10-12T03:21:03.112Z,28.47
2018-10-12T03:23:30.826Z,23.93
2018-10-12T03:25:58.752Z,26.07
2018-10-12T03:28:29.993Z,26.70
2018-10-12T03:30:58.122Z,26.80
2018-10-12T03:33:26.393Z,27.27
2018-10-12T03:35:54.565Z,25.23
2018-10-12T03:38:22.312Z,31.00
2018-10-12T03:40:50.058Z,24.50
2018-10-12T03:43:17.829Z,25.60
2018-10-12T03:45:45.641Z,27.93
2018-10-12T03:48:13.416Z,27.20
2018-10-12T03:50:41.132Z,29.97
2018-10-12T03:53:09.445Z,29.20
2018-10-12T03:55:37.185Z,28.47
2018-10-12T03:58:04.959Z,29.13
2018-10-12T04:00:32.651Z,30.33
2018-10-12T04:03:00.419Z,29.60
2018-10-12T04:05:28.080Z,26.97
2018-10-12T04:07:55.796Z,27.53
2018-10-12T04:10:23.555Z,29.17
2018-10-12T04:12:51.321Z,29.97
2018-10-12T04:15:19.116Z,29.00
2018-10-12T04:17:46.857Z,27.30
2018-10-12T04:20:14.553Z,32.27
2018-10-12T04:22:42.295Z,29.33
2018-10-12T04:25:10.128Z,29.23
2018-10-12T04:27:37.828Z,32.30
2018-10-12T04:30:06.143Z,30.97
2018-10-12T04:32:33.912Z,30.13
2018-10-12T04:35:01.638Z,30.03
2018-10-12T04:37:29.278Z,31.37
2018-10-12T04:40:03.825Z,31.27
2018-10-12T04:42:31.621Z,30.87
2018-10-12T04:44:59.361Z,33.10
2018-10-12T04:47:29.489Z,29.63
2018-10-12T04:49:58.736Z,30.80
2018-10-12T04:52:28.714Z,29.90
2018-10-12T04:55:00.688Z,27.90
2018-10-12T04:57:28.477Z,17.47
2018-10-12T04:59:56.272Z,30.23
2018-10-12T05:02:24.445Z,24.03
2018-10-12T05:04:52.321Z,30.33
2018-10-12T05:07:20.318Z,28.97
2018-10-12T05:09:47.969Z,30.13
2018-10-12T05:12:15.701Z,22.90
2018-10-12T05:14:43.857Z,26.40
2018-10-12T05:17:12.506Z,30.77
2018-10-12T05:19:40.179Z,29.47
2018-10-12T05:22:08.076Z,28.30
2018-10-12T05:24:35.911Z,31.93
2018-10-12T05:27:04.064Z,28.10
2018-10-12T05:29:31.916Z,23.87
2018-10-12T05:31:59.827Z,29.73
2018-10-12T05:34:27.674Z,25.63
2018-10-12T05:36:55.379Z,26.10
2018-10-12T05:39:23.090Z,34.70
2018-10-12T05:41:50.958Z,35.37
2018-10-12T05:44:18.914Z,27.37
2018-10-12T05:46:46.944Z,31.63
2018-10-12T05:49:32.185Z,30.63
2018-10-12T05:52:01.317Z,32.87
2018-10-12T05:54:29.053Z,21.23
2018-10-12T05:56:56.849Z,15.87
2018-10-12T05:59:24.681Z,15.27
2018-10-12T06:01:52.697Z,31.07
2018-10-12T06:04:20.353Z,34.33
2018-10-12T06:06:48.157Z,32.30
2018-10-12T06:09:15.922Z,35.67
2018-10-12T06:11:43.933Z,31.30
2018-10-12T06:14:11.601Z,33.77
2018-10-12T06:16:39.345Z,35.50
2018-10-12T06:19:07.129Z,36.30
2018-10-12T06:21:34.888Z,35.23
2018-10-12T06:24:02.629Z,36.93
2018-10-12T06:26:30.286Z,34.30
2018-10-12T06:28:58.073Z,38.97
2018-10-12T06:31:25.789Z,30.10
2018-10-12T06:33:53.494Z,30.97
2018-10-12T06:36:21.219Z,29.77
2018-10-12T06:38:48.917Z,32.97
2018-10-12T06:41:16.637Z,25.97
2018-10-12T06:43:44.304Z,29.43
2018-10-12T06:46:12.073Z,29.33
2018-10-12T06:48:39.807Z,31.00
2018-10-12T06:51:08.029Z,31.33
2018-10-12T06:53:36.345Z,30.63
2018-10-12T06:56:04.042Z,31.23
2018-10-12T06:58:31.742Z,30.23
2018-10-12T07:00:59.481Z,26.93
2018-10-12T07:03:27.303Z,29.83
2018-10-12T07:05:55.101Z,30.13
2018-10-12T07:08:22.875Z,31.73
2018-10-12T07:10:50.625Z,32.17
2018-10-12T07:13:18.273Z,32.33
2018-10-12T07:15:46.005Z,30.90
2018-10-12T07:18:13.689Z,32.17
2018-10-12T07:20:41.417Z,35.37
2018-10-12T07:23:09.102Z,28.50
2018-10-12T07:25:36.796Z,32.03
2018-10-12T07:28:04.505Z,35.63
2018-10-12T07:30:32.214Z,35.10
2018-10-12T07:32:59.917Z,35.67
2018-10-12T07:35:27.570Z,34.33
2018-10-12T07:37:55.341Z,41.30
2018-10-12T07:40:23.061Z,36.60
2018-10-12T07:42:50.797Z,33.33
2018-10-12T07:45:18.515Z,36.13
2018-10-12T07:47:46.165Z,34.37
2018-10-12T07:50:13.881Z,32.57
2018-10-12T07:52:41.553Z,32.87
2018-10-12T07:55:09.245Z,32.07
2018-10-12T07:57:36.961Z,35.37
2018-10-12T08:00:05.698Z,30.20
2018-10-12T08:02:33.397Z,32.43
2018-10-12T08:05:01.045Z,32.17
2018-10-12T08:07:28.818Z,38.77
2018-10-12T08:09:56.529Z,25.27
2018-10-12T08:12:24.273Z,33.77
2018-10-12T08:14:52.005Z,34.20
2018-10-12T08:17:19.764Z,30.93
2018-10-12T08:19:47.889Z,30.40
2018-10-12T08:22:15.672Z,29.83
2018-10-12T08:24:43.477Z,41.20
2018-10-12T08:27:11.244Z,33.40
2018-10-12T08:29:38.874Z,37.13
2018-10-12T08:32:06.730Z,34.73
2018-10-12T08:34:34.612Z,39.87
2018-10-12T08:37:08.599Z,35.70
2018-10-12T08:39:36.549Z,29.87
2018-10-12T08:42:06.500Z,36.93
2018-10-12T08:44:34.603Z,38.30
2018-10-12T08:47:02.953Z,46.77
2018-10-12T08:49:31.265Z,38.17
2018-10-12T08:52:02.481Z,35.20
2018-10-12T08:54:31.415Z,36.53
2018-10-12T08:56:59.626Z,31.67
2018-10-12T08:59:30.071Z,30.90
2018-10-12T09:01:57.809Z,33.17
2018-10-12T09:04:25.606Z,33.63
2018-10-12T09:06:53.280Z,28.80
2018-10-12T09:09:20.937Z,29.57
2018-10-12T09:11:48.641Z,31.67
2018-10-12T09:14:16.342Z,27.17
2018-10-12T09:16:43.994Z,29.47
2018-10-12T09:19:11.702Z,29.50
2018-10-12T09:21:39.422Z,26.50
2018-10-12T09:24:07.220Z,26.80
2018-10-12T09:26:34.929Z,26.93
2018-10-12T09:29:02.645Z,28.60
2018-10-12T09:31:30.406Z,28.70
2018-10-12T09:33:58.152Z,33.20
2018-10-12T09:36:25.963Z,30.97
2018-10-12T09:38:53.639Z,25.60
2018-10-12T09:41:21.433Z,28.57
2018-10-12T09:43:49.119Z,27.53
2018-10-12T09:46:16.845Z,29.33
2018-10-12T09:48:44.645Z,23.03
2018-10-12T09:51:12.317Z,24.03
2018-10-12T09:53:40.013Z,25.37
2018-10-12T09:56:07.845Z,21.03
2018-10-12T09:58:35.620Z,18.27
2018-10-12T10:01:09.147Z,20.80
2018-10-12T10:03:42.509Z,17.80
2018-10-12T10:06:10.209Z,17.20
2018-10-12T10:08:37.962Z,15.50
2018-10-12T10:11:05.697Z,15.80
2018-10-12T10:13:33.434Z,14.47
2018-10-12T10:16:04.720Z,15.30
2018-10-12T10:18:32.486Z,11.37
2018-10-12T10:21:00.205Z,13.03
2018-10-12T10:23:27.905Z,15.30
2018-10-12T10:25:55.629Z,12.63
2018-10-12T10:28:23.320Z,15.10
2018-10-12T10:30:50.968Z,15.57
2018-10-12T10:33:18.725Z,9.67
2018-10-12T10:35:46.436Z,11.30
2018-10-12T10:38:14.172Z,7.93
2018-10-12T10:40:41.899Z,8.43
2018-10-12T10:43:09.598Z,15.17
2018-10-12T10:45:37.323Z,7.77
2018-10-12T10:48:05.006Z,12.10
2018-10-12T10:50:32.737Z,8.20
2018-10-12T10:53:00.540Z,10.40
2018-10-12T10:55:28.216Z,9.30
2018-10-12T10:57:56.014Z,8.83
2018-10-12T11:00:23.922Z,10.07
2018-10-12T11:02:51.614Z,10.43
2018-10-12T11:05:19.253Z,10.20
2018-10-12T11:07:46.990Z,9.03
2018-10-12T11:10:14.697Z,7.93
2018-10-12T11:12:42.449Z,8.00
2018-10-12T11:15:10.085Z,6.13
2018-10-12T11:17:37.881Z,8.10
2018-10-12T11:20:06.300Z,5.43
2018-10-12T11:22:34.050Z,5.67
2018-10-12T11:25:01.874Z,6.00
2018-10-12T11:27:29.559Z,3.47
2018-10-12T11:29:57.329Z,6.03
2018-10-12T11:32:26.237Z,5.43
2018-10-12T11:34:53.953Z,7.60
2018-10-12T11:37:21.682Z,6.00
2018-10-12T11:39:49.384Z,7.20
2018-10-12T11:42:17.178Z,7.73
2018-10-12T11:44:44.921Z,5.30
2018-10-12T11:47:12.694Z,5.90
2018-10-12T11:49:40.396Z,7.53
2018-10-12T11:52:08.207Z,9.17
2018-10-12T11:54:35.822Z,6.47
2018-10-12T11:57:03.517Z,6.53
2018-10-12T11:59:31.245Z,4.60
2018-10-12T12:01:58.916Z,7.33
2018-10-12T12:04:26.620Z,6.50
2018-10-12T12:06:54.305Z,6.30
2018-10-12T12:09:22.084Z,8.17
2018-10-12T12:11:49.800Z,8.13
2018-10-12T12:14:17.524Z,7.60
2018-10-12T12:16:45.214Z,3.93
2018-10-12T12:19:13.038Z,5.43
2018-10-12T12:21:40.593Z,7.37
2018-10-12T12:24:08.337Z,5.40
2018-10-12T12:26:36.023Z,5.53
2018-10-12T12:29:03.774Z,5.23
2018-10-12T12:31:31.550Z,6.40
2018-10-12T12:33:59.342Z,7.57
2018-10-12T12:36:27.665Z,7.20
2018-10-12T12:38:55.414Z,6.33
2018-10-12T12:41:23.145Z,5.40
2018-10-12T12:43:50.829Z,5.63
2018-10-12T12:46:19.222Z,5.50
2018-10-12T12:48:47.427Z,4.77
2018-10-12T12:51:14.685Z,3.83
2018-10-12T12:53:43.232Z,3.80
2018-10-12T12:56:11.606Z,6.07
2018-10-12T12:58:39.233Z,4.03
2018-10-12T13:01:07.133Z,4.37
2018-10-12T13:03:34.810Z,4.07
2018-10-12T13:06:02.455Z,9.67
2018-10-12T13:08:30.197Z,3.93
2018-10-12T13:10:57.898Z,3.30
2018-10-12T13:13:25.535Z,8.07
2018-10-12T13:15:53.287Z,10.97
2018-10-12T13:18:21.047Z,6.57
2018-10-12T13:20:48.729Z,5.37
2018-10-12T13:23:16.408Z,9.43
2018-10-12T13:25:44.141Z,6.43
2018-10-12T13:28:11.821Z,4.77
2018-10-12T13:30:39.532Z,4.83
2018-10-12T13:33:07.212Z,6.07
2018-10-12T13:35:35.005Z,4.60
2018-10-12T13:38:02.701Z,4.43
2018-10-12T13:40:30.424Z,5.10
2018-10-12T13:42:58.157Z,3.97
2018-10-12T13:45:25.869Z,8.47
2018-10-12T13:47:53.548Z,5.13
2018-10-12T13:50:21.257Z,4.43
2018-10-12T13:52:48.965Z,4.87
2018-10-12T13:55:16.654Z,6.53
2018-10-12T13:57:44.310Z,6.67
2018-10-12T14:00:12.086Z,6.63
2018-10-12T14:02:39.669Z,5.30
2018-10-12T14:05:07.437Z,9.00
2018-10-12T14:07:35.141Z,5.07
2018-10-12T14:10:03.031Z,5.67
2018-10-12T14:12:30.906Z,8.67
2018-10-12T14:14:58.427Z,5.80
2018-10-12T14:17:26.170Z,2.90
2018-10-12T14:19:53.830Z,8.23
2018-10-12T14:22:21.565Z,3.97
2018-10-12T14:24:49.298Z,4.07
2018-10-12T14:27:16.947Z,5.33
2018-10-12T14:29:44.689Z,4.53
2018-10-12T14:32:12.422Z,5.63
2018-10-12T14:34:40.173Z,4.80
2018-10-12T14:37:07.905Z,4.20
2018-10-12T14:39:35.593Z,5.83
2018-10-12T14:42:03.283Z,2.70
2018-10-12T14:44:31.568Z,3.50
2018-10-12T14:46:59.303Z,5.40
2018-10-12T14:49:27.033Z,4.20
2018-10-12T14:51:54.786Z,7.27
2018-10-12T14:54:22.535Z,5.60
2018-10-12T14:56:50.288Z,5.27
2018-10-12T14:59:18.027Z,5.97
2018-10-12T15:01:45.693Z,5.27
2018-10-12T15:04:13.437Z,5.33
2018-10-12T15:06:41.181Z,4.33
2018-10-12T15:09:11.614Z,5.77
2018-10-12T15:11:39.345Z,3.77
2018-10-12T15:14:07.013Z,4.83
2018-10-12T15:16:34.821Z,3.63
2018-10-12T15:19:02.641Z,2.83
2018-10-12T15:21:30.426Z,3.63
2018-10-12T15:23:58.132Z,5.17
2018-10-12T15:26:25.897Z,6.90
2018-10-12T15:28:53.564Z,3.90
2018-10-12T15:31:21.215Z,2.73
2018-10-12T15:33:48.958Z,6.33
2018-10-12T15:36:16.697Z,4.93
2018-10-12T15:38:44.471Z,4.60
2018-10-12T15:41:12.169Z,6.17
2018-10-12T15:43:39.994Z,2.97
2018-10-12T15:46:07.757Z,5.70
2018-10-12T15:48:35.566Z,4.73
2018-10-12T15:51:03.312Z,5.73
2018-10-12T15:53:31.071Z,3.63
2018-10-12T15:55:58.797Z,3.17
2018-10-12T15:58:26.505Z,4.40
2018-10-12T16:00:54.286Z,3.90
2018-10-12T16:03:22.033Z,4.00
2018-10-12T16:05:49.785Z,8.90
2018-10-12T16:08:17.775Z,4.30
2018-10-12T16:10:45.456Z,5.90
2018-10-12T16:13:13.125Z,5.10
2018-10-12T16:15:40.809Z,5.93
2018-10-12T16:18:08.483Z,6.23
2018-10-12T16:20:36.169Z,4.07
2018-10-12T16:23:03.842Z,5.03
2018-10-12T16:26:00.877Z,3.60
2018-10-12T16:28:28.607Z,6.37
2018-10-12T16:30:56.713Z,6.93
2018-10-12T16:33:24.877Z,9.83
2018-10-12T16:35:53.561Z,8.40
2018-10-12T16:38:21.501Z,13.03
2018-10-12T16:40:49.193Z,8.37
2018-10-12T16:43:17.126Z,9.00
2018-10-12T16:45:46.154Z,7.63
2018-10-12T16:48:13.865Z,10.33
2018-10-12T16:50:41.600Z,6.47
2018-10-12T16:53:09.649Z,7.90
2018-10-12T16:55:37.497Z,7.63
2018-10-12T16:58:05.290Z,15.13
2018-10-12T17:00:32.978Z,9.43
2018-10-12T17:03:00.672Z,10.93
2018-10-12T17:05:28.404Z,12.37
2018-10-12T17:07:56.981Z,11.00
2018-10-12T17:10:35.612Z,7.63
2018-10-12T17:13:14.572Z,8.67
2018-10-12T17:15:45.951Z,8.97
2018-10-12T17:18:15.290Z,10.17
2018-10-12T17:20:43.028Z,9.53
2018-10-12T17:23:10.769Z,14.27
2018-10-12T17:25:38.434Z,18.83
2018-10-12T17:28:06.152Z,11.83
2018-10-12T17:30:33.889Z,15.27
2018-10-12T17:33:01.569Z,19.20
2018-10-12T17:35:29.278Z,16.77
2018-10-12T17:37:56.970Z,18.77
2018-10-12T17:40:24.616Z,13.97
2018-10-12T17:42:52.348Z,13.47
2018-10-12T17:45:20.336Z,16.83
2018-10-12T17:47:49.037Z,16.13
2018-10-12T17:50:26.456Z,20.70
2018-10-12T17:53:03.283Z,18.53
2018-10-12T17:55:34.797Z,19.30
2018-10-12T17:58:02.968Z,17.30
2018-10-12T18:00:30.810Z,14.13
2018-10-12T18:02:58.493Z,13.73
2018-10-12T18:05:33.850Z,12.20
2018-10-12T18:08:01.629Z,14.00
2018-10-12T18:10:29.324Z,13.03
2018-10-12T18:12:56.989Z,12.83
2018-10-12T18:15:24.689Z,11.53
2018-10-12T18:17:52.401Z,12.57
2018-10-12T18:20:25.092Z,14.07
2018-10-12T18:22:53.597Z,13.80
2018-10-12T18:25:21.469Z,14.57
2018-10-12T18:27:49.177Z,10.80
2018-10-12T18:30:16.861Z,13.87
2018-10-12T18:32:44.673Z,16.30
2018-10-12T18:35:12.371Z,11.03
2018-10-12T18:37:40.049Z,11.87
2018-10-12T18:40:07.774Z,11.97
2018-10-12T18:42:35.601Z,13.63
2018-10-12T18:45:03.349Z,13.83
2018-10-12T18:47:31.064Z,10.00
2018-10-12T18:49:59.414Z,11.77
2018-10-12T18:52:27.141Z,9.67
2018-10-12T18:54:54.781Z,8.20
2018-10-12T18:57:22.477Z,7.63
2018-10-12T18:59:50.220Z,12.03
2018-10-12T19:02:18.076Z,11.30
2018-10-12T19:04:46.868Z,8.67
2018-10-12T19:07:14.393Z,13.33
2018-10-12T19:09:42.136Z,10.13
2018-10-12T19:12:09.873Z,9.27
2018-10-12T19:14:37.545Z,7.83
2018-10-12T19:17:05.844Z,8.53
2018-10-12T19:19:35.944Z,15.20
2018-10-12T19:22:03.661Z,14.97
2018-10-12T19:24:31.344Z,13.40
2018-10-12T19:26:58.994Z,13.27
2018-10-12T19:29:26.766Z,13.23
2018-10-12T19:31:56.040Z,15.73
2018-10-12T19:34:23.665Z,12.17
2018-10-12T19:36:51.371Z,11.03
2018-10-12T19:39:19.085Z,10.93
2018-10-12T19:41:46.817Z,14.33
2018-10-12T19:44:14.498Z,12.70
2018-10-12T19:46:42.210Z,12.20
2018-10-12T19:49:09.960Z,13.17
2018-10-12T19:51:37.689Z,10.67
2018-10-12T19:54:06.403Z,13.77
2018-10-12T19:56:34.086Z,14.60
2018-10-12T19:59:01.860Z,10.83
2018-10-12T20:01:29.581Z,11.40
2018-10-12T20:03:57.305Z,10.13
2018-10-12T20:06:25.025Z,13.97
2018-10-12T20:08:52.771Z,11.83
2018-10-12T20:11:20.457Z,11.47
2018-10-12T20:13:48.115Z,10.53
2018-10-12T20:16:15.862Z,14.67
2018-10-12T20:18:43.716Z,11.27
2018-10-12T20:21:11.449Z,11.20
2018-10-12T20:23:45.638Z,9.50
2018-10-12T20:26:21.111Z,11.97
2018-10-12T20:28:48.901Z,11.63
2018-10-12T20:31:18.675Z,10.40
2018-10-12T20:33:46.452Z,11.00
2018-10-12T20:36:14.201Z,15.03
2018-10-12T20:38:41.940Z,14.93
2018-10-12T20:41:09.621Z,10.00
2018-10-12T20:43:37.257Z,16.43
2018-10-12T20:46:09.508Z,12.27
2018-10-12T20:48:37.394Z,10.80
2018-10-12T20:51:05.201Z,11.57
2018-10-12T20:53:32.871Z,17.70
2018-10-12T20:56:00.581Z,10.63
2018-10-12T20:58:28.300Z,12.17
2018-10-12T21:00:56.002Z,9.70
2018-10-12T21:03:23.698Z,13.87
2018-10-12T21:05:51.426Z,10.23
2018-10-12T21:08:19.088Z,13.87
2018-10-12T21:10:46.760Z,11.50
2018-10-12T21:13:14.447Z,12.10
2018-10-12T21:15:42.069Z,12.63
2018-10-12T21:18:09.773Z,16.03
2018-10-12T21:20:37.452Z,11.27
2018-10-12T21:23:05.173Z,14.10
2018-10-12T21:25:32.869Z,10.40
2018-10-12T21:28:00.577Z,12.37
2018-10-12T21:30:28.370Z,11.07
2018-10-12T21:33:01.930Z,11.50
2018-10-12T21:35:31.867Z,11.80
2018-10-12T21:37:59.559Z,11.07
2018-10-12T21:40:27.338Z,12.50
2018-10-12T21:42:54.928Z,10.57
2018-10-12T21:45:22.749Z,12.37
2018-10-12T21:47:50.400Z,10.67
2018-10-12T21:50:18.311Z,10.93
2018-10-12T21:52:45.976Z,11.37
2018-10-12T21:55:13.717Z,12.07
2018-10-12T21:57:41.461Z,14.13
2018-10-12T22:00:09.812Z,13.40
2018-10-12T22:02:42.910Z,13.23
2018-10-12T22:05:11.549Z,11.07
2018-10-12T22:07:44.443Z,17.60
2018-10-12T22:10:16.218Z,10.70
2018-10-12T22:12:44.078Z,11.67
2018-10-12T22:15:23.465Z,12.30
2018-10-12T22:17:52.961Z,12.27
2018-10-12T22:20:24.516Z,11.80
2018-10-12T22:22:55.040Z,12.67
2018-10-12T22:25:28.745Z,11.13
2018-10-12T22:28:02.833Z,12.03
2018-10-12T22:30:31.738Z,13.90
2018-10-12T22:32:59.517Z,13.37
2018-10-12T22:35:27.249Z,12.83
2018-10-12T22:37:54.905Z,14.83
2018-10-12T22:40:29.759Z,18.27
2018-10-12T22:42:57.599Z,11.03
2018-10-12T22:45:25.505Z,11.00
2018-10-12T22:47:56.346Z,13.20
2018-10-12T22:50:30.575Z,13.97
2018-10-12T22:52:58.381Z,11.37
2018-10-12T22:55:26.085Z,12.77
2018-10-12T22:57:59.518Z,12.73
2018-10-12T23:00:27.597Z,12.87
2018-10-12T23:02:55.253Z,12.97
2018-10-12T23:05:22.965Z,13.23
2018-10-12T23:07:57.102Z,12.97
2018-10-12T23:10:25.816Z,14.77
2018-10-12T23:12:54.352Z,15.83
2018-10-12T23:15:22.409Z,13.90
2018-10-12T23:17:50.118Z,12.50
2018-10-12T23:20:21.009Z,14.13
2018-10-12T23:22:48.945Z,12.90
2018-10-12T23:25:16.707Z,13.47
2018-10-12T23:27:44.876Z,11.73
2018-10-12T23:30:13.287Z,9.30
2018-10-12T23:32:44.383Z,13.30
2018-10-12T23:35:12.040Z,12.77
2018-10-12T23:37:39.773Z,12.73
2018-10-12T23:40:07.524Z,10.07
2018-10-12T23:42:35.272Z,14.20
2018-10-12T23:45:03.441Z,12.63
2018-10-12T23:47:37.024Z,11.10
2018-10-12T23:50:08.659Z,15.30
2018-10-12T23:52:36.393Z,20.37
2018-10-12T23:55:04.325Z,22.83
2018-10-12T23:57:32.105Z,19.17
2018-10-12T23:59:59.852Z,21.43
